Weather reports worldwide

Advertisment
Autilla del Pino, Spain (8072): temperature & dewpoint: 16.07.2019 02:00:00 - 22.07.2019 02:00:00 (CEST)Autilla del Pino, Spain (8072): wind speed & gusts: 16.07.2019 02:00:00 - 22.07.2019 02:00:00 (CEST)Autilla del Pino, Spain (8072): wind direction: 16.07.2019 02:00:00 - 22.07.2019 02:00:00 (CEST)Autilla del Pino, Spain (8072): precipitation: 16.07.2019 02:00:00 - 22.07.2019 02:00:00 (CEST)
Date & Time tt [°C] td [°C] ff [km/h] ff [kn] fx [km/h] fx [kn] dd rr [mm]
22.07.2019 02:00:00 - - - - - - - -
22.07.2019 01:00:00 19,0 16,0 23 12 29 16 ENE 0,0
22.07.2019 00:00:00 19,7 16,3 21 11 27 14 ENE 0,0
21.07.2019 23:00:00 22,2 15,8 16 9 29 16 ENE 0,0
21.07.2019 22:00:00 26,0 13,5 19 10 29 15 NE 0,0
21.07.2019 21:00:00 30,8 9,0 7 4 11 6 N 0,0
21.07.2019 20:00:00 32,3 9,8 6 4 15 8 NNW -
21.07.2019 19:00:00 33,0 11,0 8 4 21 11 NNE 0,0
21.07.2019 18:00:00 32,0 10,6 10 5 23 13 WNW 0,0
21.07.2019 17:00:00 33,2 11,7 6 3 22 12 WNW 0,0
21.07.2019 16:00:00 31,8 12,1 8 5 23 13 NNW 0,0
21.07.2019 15:00:00 31,2 14,3 8 4 25 13 N 0,0
21.07.2019 14:00:00 29,3 14,7 13 7 25 13 NNE -
21.07.2019 13:00:00 27,6 15,6 12 6 22 12 NE 0,0
21.07.2019 12:00:00 25,5 15,3 10 6 20 11 NE 0,0
21.07.2019 11:00:00 23,6 15,3 9 5 19 10 ENE 0,0
21.07.2019 10:00:00 20,0 14,8 11 6 20 11 E 0,0
21.07.2019 09:00:00 17,1 14,1 16 9 64 34 E 0,0
21.07.2019 08:00:00 15,4 14,6 17 9 23 12 E -
21.07.2019 07:00:00 14,4 13,8 16 8 28 15 ENE 0,0
21.07.2019 06:00:00 14,9 13,9 24 13 33 18 ENE 0,0
21.07.2019 05:00:00 15,3 14,3 28 15 40 21 E 0,0
21.07.2019 04:00:00 15,6 14,3 29 16 37 20 ENE 0,0
21.07.2019 03:00:00 15,9 14,6 27 15 38 21 ENE 0,0
21.07.2019 02:00:00 16,0 14,7 27 15 39 21 ENE -
21.07.2019 01:00:00 16,4 14,7 31 17 40 21 ENE 0,0
21.07.2019 00:00:00 17,1 15,3 24 13 38 21 ENE 0,0
20.07.2019 23:00:00 18,6 15,4 22 12 30 16 ENE 0,0
20.07.2019 22:00:00 21,5 16,0 22 12 31 17 ENE 0,0
20.07.2019 21:00:00 29,2 8,8 13 7 31 17 W 0,0
20.07.2019 20:00:00 31,5 9,0 14 8 33 18 WNW -
20.07.2019 19:00:00 32,2 10,9 15 8 29 16 W 0,0
20.07.2019 18:00:00 32,6 12,7 14 8 30 16 W 0,0
20.07.2019 17:00:00 32,1 13,4 15 8 30 16 W 0,0
20.07.2019 16:00:00 31,2 13,5 7 4 31 17 WSW 0,0
20.07.2019 15:00:00 30,0 13,8 10 5 32 17 WNW 0,0
20.07.2019 14:00:00 28,9 14,3 13 7 22 12 W -
20.07.2019 13:00:00 27,5 14,5 8 4 17 9 WSW 0,0
20.07.2019 12:00:00 25,2 15,3 6 3 16 8 N 0,0
20.07.2019 11:00:00 23,1 15,2 7 4 14 7 N 0,0
20.07.2019 10:00:00 20,9 14,0 7 4 14 7 N 0,0
20.07.2019 09:00:00 19,3 12,7 10 6 14 8 NE 0,0
20.07.2019 08:00:00 16,3 12,4 8 4 12 6 NNW -
20.07.2019 07:00:00 14,6 11,3 6 4 8 4 NNW 0,0
20.07.2019 06:00:00 16,0 11,3 4 2 14 8 NW 0,0
20.07.2019 05:00:00 17,8 11,8 11 6 18 10 E 0,0
20.07.2019 04:00:00 18,6 11,7 14 8 22 12 E 0,0
20.07.2019 03:00:00 18,6 12,1 16 8 19 10 ENE 0,0
20.07.2019 02:00:00 19,7 12,7 13 7 20 11 ENE -
20.07.2019 01:00:00 22,0 8,1 11 6 30 16 N 0,0
20.07.2019 00:00:00 24,2 9,3 16 8 22 12 NNW 0,0
19.07.2019 23:00:00 24,4 8,8 11 6 16 8 NNW 0,0
19.07.2019 22:00:00 26,0 8,0 13 7 16 9 WNW 0,0
19.07.2019 21:00:00 30,5 9,4 12 6 27 15 W 0,0
19.07.2019 20:00:00 31,8 9,9 19 10 41 22 W -
19.07.2019 19:00:00 32,2 10,3 18 10 39 21 WNW 0,0
19.07.2019 18:00:00 32,9 11,4 20 11 32 17 W 0,0
19.07.2019 17:00:00 33,0 11,6 17 9 33 18 W 0,0
19.07.2019 16:00:00 32,2 11,3 17 9 42 23 WSW 0,0
19.07.2019 15:00:00 31,6 11,4 12 7 29 16 W 0,0
19.07.2019 14:00:00 31,2 11,6 3 2 21 11 S -
19.07.2019 13:00:00 29,9 12,3 6 3 16 9 SSW 0,0
19.07.2019 12:00:00 26,8 12,8 9 5 17 9 ESE 0,0
19.07.2019 11:00:00 23,8 12,7 11 6 21 12 ESE 0,0
19.07.2019 10:00:00 20,0 11,8 10 5 19 10 E 0,0
19.07.2019 09:00:00 17,6 11,0 13 7 23 12 E 0,0
19.07.2019 08:00:00 15,2 10,2 20 11 24 13 E -
19.07.2019 07:00:00 13,7 9,3 19 11 25 13 E 0,0
19.07.2019 06:00:00 14,5 9,7 21 11 24 13 ENE 0,0
19.07.2019 05:00:00 15,0 9,8 19 10 28 15 E 0,0
19.07.2019 04:00:00 15,8 10,8 23 12 34 18 E 0,0
19.07.2019 03:00:00 16,7 11,8 23 13 35 19 E 0,0
19.07.2019 02:00:00 16,8 11,9 23 12 35 19 E -
19.07.2019 01:00:00 17,7 11,7 25 14 36 20 E 0,0
19.07.2019 00:00:00 18,5 11,1 22 12 32 18 E 0,0
18.07.2019 23:00:00 19,7 11,2 20 11 27 15 ENE 0,0
18.07.2019 22:00:00 22,4 9,9 17 9 25 13 ENE 0,0
18.07.2019 21:00:00 26,9 7,8 14 8 19 10 ENE 0,0
18.07.2019 20:00:00 29,3 7,3 8 5 17 9 ENE -
18.07.2019 19:00:00 29,2 5,9 10 5 21 12 NE 0,0
18.07.2019 18:00:00 29,4 5,5 8 5 23 12 NNE 0,0
18.07.2019 17:00:00 29,1 5,8 8 5 20 11 N 0,0
18.07.2019 16:00:00 28,1 7,3 5 3 23 13 NNW 0,0
18.07.2019 15:00:00 26,2 7,3 8 5 20 11 NNE 0,0
18.07.2019 14:00:00 25,4 8,4 9 5 21 11 NNE -
18.07.2019 13:00:00 22,9 8,9 11 6 22 12 NNE 0,0
18.07.2019 12:00:00 21,5 10,9 10 6 21 11 NE 0,0
18.07.2019 11:00:00 19,0 11,3 13 7 23 13 ENE 0,0
18.07.2019 10:00:00 17,0 11,0 18 10 26 14 ENE 0,0
18.07.2019 09:00:00 15,2 11,3 17 9 23 13 ENE 0,0
18.07.2019 08:00:00 13,4 11,2 18 10 29 16 E -
18.07.2019 07:00:00 12,5 10,9 21 11 29 16 ENE 0,0
18.07.2019 06:00:00 12,5 10,8 21 12 32 17 ENE 0,0
18.07.2019 05:00:00 13,0 10,9 23 12 34 18 ENE 0,0
18.07.2019 04:00:00 13,5 10,9 28 15 37 20 ENE 0,0
18.07.2019 03:00:00 13,7 11,0 27 15 37 20 ENE 0,0
18.07.2019 02:00:00 14,4 11,2 31 17 39 21 ENE -
18.07.2019 01:00:00 14,8 11,6 29 16 41 22 E 0,0
18.07.2019 00:00:00 15,2 12,1 29 16 44 24 ENE 0,0
17.07.2019 23:00:00 16,1 12,2 33 18 42 23 ENE 0,0
17.07.2019 22:00:00 16,9 12,4 33 18 43 23 ENE 0,0
17.07.2019 21:00:00 19,9 12,4 31 17 42 23 ENE 0,0
17.07.2019 20:00:00 23,2 12,5 33 18 42 23 ENE -
17.07.2019 19:00:00 26,0 13,5 29 16 46 25 ENE 0,0
17.07.2019 18:00:00 27,9 14,1 27 14 37 20 NE 0,0
17.07.2019 17:00:00 28,4 14,2 24 13 41 22 NE 0,0
17.07.2019 16:00:00 28,1 14,3 26 14 37 20 NE 0,0
17.07.2019 15:00:00 27,6 14,2 14 8 31 17 NE 0,0
17.07.2019 14:00:00 26,7 14,1 16 9 28 15 ENE -
17.07.2019 13:00:00 25,6 13,8 14 7 29 15 E 0,0
17.07.2019 12:00:00 23,2 13,4 19 10 34 18 ENE 0,0
17.07.2019 11:00:00 20,4 12,6 24 13 32 17 ENE 0,0
17.07.2019 10:00:00 18,5 12,4 22 12 30 16 ENE 0,0
17.07.2019 09:00:00 16,1 11,4 21 12 34 18 ENE 0,0
17.07.2019 08:00:00 14,3 10,8 22 12 29 16 ENE -
17.07.2019 07:00:00 13,4 10,8 20 11 36 19 ENE 0,0
17.07.2019 06:00:00 13,5 10,6 31 17 39 21 ENE 0,0
17.07.2019 05:00:00 14,2 11,2 23 12 30 16 ENE 0,0
17.07.2019 04:00:00 14,7 11,7 18 10 30 16 ENE 0,0
17.07.2019 03:00:00 16,6 11,8 21 11 28 15 ENE 0,0
17.07.2019 02:00:00 17,4 11,9 16 9 37 20 ENE -
17.07.2019 01:00:00 17,7 12,8 28 15 44 24 E 0,0
17.07.2019 00:00:00 18,9 12,8 24 13 36 19 ENE 0,0
16.07.2019 23:00:00 20,4 12,6 25 14 34 18 ENE 0,0
16.07.2019 22:00:00 22,3 11,7 19 10 31 17 ENE 0,0
16.07.2019 21:00:00 25,0 10,0 23 12 35 19 E 0,0
16.07.2019 20:00:00 27,0 9,8 23 12 31 17 ENE -
16.07.2019 19:00:00 27,7 9,6 23 12 30 16 ENE 0,0
16.07.2019 18:00:00 28,8 9,9 17 9 28 15 ENE 0,0
16.07.2019 17:00:00 29,6 9,7 12 6 44 24 ENE 0,0
16.07.2019 16:00:00 30,3 9,8 18 10 29 16 ENE 0,0
16.07.2019 15:00:00 29,2 9,3 11 6 27 15 ENE 0,0
16.07.2019 14:00:00 28,3 9,6 13 7 25 13 ENE -
16.07.2019 13:00:00 26,1 8,5 13 7 23 12 ENE 0,0
16.07.2019 12:00:00 24,0 8,4 14 8 29 16 ENE 0,0
16.07.2019 11:00:00 21,8 8,7 15 8 24 13 E 0,0
16.07.2019 10:00:00 18,6 8,8 14 7 22 12 E 0,0
16.07.2019 09:00:00 15,5 8,3 21 11 33 18 E 0,0
16.07.2019 08:00:00 13,6 7,6 23 13 31 17 E -
16.07.2019 07:00:00 12,4 6,7 23 12 29 16 E 0,0
16.07.2019 06:00:00 12,8 6,8 24 13 32 17 E 0,0
16.07.2019 05:00:00 13,7 7,4 26 14 32 18 E 0,0
16.07.2019 04:00:00 13,9 8,5 24 13 29 16 ENE 0,0
16.07.2019 03:00:00 14,2 9,4 21 11 33 18 ENE 0,0
16.07.2019 02:00:00 15,2 9,0 27 14 40 21 E -

tt = temperature
td = dewpoint
ff = wind speed
fx = gusts
dd = wind direction
rr = precipitation

Next stations